Time;durP1;ratioP1;P1;durP2;ratioP2;P2;SDS_P1;SDS_P2;PMS_P1;PMS_P2;Temp;Humidity;BMP_temperature;BMP_pressure;BME280_temperature;BME280_humidity;BME280_pressure;Samples;Min_cycle;Max_cycle;Signal;HPM_P1;HPM_P2
2023/05/03 00:00:00;;;;;;;2.53;1.50;;;;;;;;;;4931593;28;20113;-80
2023/05/03 00:02:25;;;;;;;2.85;1.55;;;;;;;;;;4943249;28;20039;-79
2023/05/03 00:04:53;;;;;;;2.70;1.60;;;;;;;;;;4956807;28;20145;-79
2023/05/03 00:07:18;;;;;;;1.83;1.70;;;;;;;;;;4955162;28;20563;-79
2023/05/03 00:09:44;;;;;;;3.90;1.77;;;;;;;;;;4952197;28;20057;-80
2023/05/03 00:12:09;;;;;;;2.78;1.83;;;;;;;;;;4954281;28;20090;-80
2023/05/03 00:14:34;;;;;;;5.18;2.33;;;;;;;;;;4947335;28;20031;-80
2023/05/03 00:17:00;;;;;;;2.33;1.90;;;;;;;;;;4957131;28;20562;-77
2023/05/03 00:19:32;;;;;;;3.22;1.85;;;;;;;;;;4961714;28;20122;-80
2023/05/03 00:21:58;;;;;;;3.45;1.90;;;;;;;;;;4951479;28;20047;-80
2023/05/03 00:24:23;;;;;;;2.70;1.75;;;;;;;;;;4959339;28;20039;-80
2023/05/03 00:26:49;;;;;;;2.67;1.73;;;;;;;;;;4950692;28;20050;-79
2023/05/03 00:29:15;;;;;;;3.38;1.70;;;;;;;;;;4947399;28;20038;-81
2023/05/03 00:31:43;;;;;;;3.00;1.95;;;;;;;;;;4962751;28;20038;-79
2023/05/03 00:34:08;;;;;;;1.80;1.70;;;;;;;;;;4958346;28;20046;-79
2023/05/03 00:36:33;;;;;;;3.70;1.50;;;;;;;;;;4960234;28;20054;-79
2023/05/03 00:38:59;;;;;;;2.45;1.85;;;;;;;;;;4958618;28;20058;-79
2023/05/03 00:41:25;;;;;;;4.00;1.73;;;;;;;;;;4927620;28;20436;-79
2023/05/03 00:43:50;;;;;;;2.03;1.60;;;;;;;;;;4943874;28;20042;-78
2023/05/03 00:46:15;;;;;;;2.00;1.52;;;;;;;;;;4956381;28;20058;-80
2023/05/03 00:48:41;;;;;;;3.20;1.60;;;;;;;;;;4938845;28;20042;-77
2023/05/03 00:51:07;;;;;;;1.92;1.67;;;;;;;;;;4957125;28;20035;-78
2023/05/03 00:53:33;;;;;;;2.08;1.45;;;;;;;;;;4954818;28;20039;-78
2023/05/03 00:56:00;;;;;;;3.13;1.50;;;;;;;;;;4945232;28;20952;-78
2023/05/03 00:58:25;;;;;;;5.05;1.42;;;;;;;;;;4913910;28;20543;-77
2023/05/03 01:00:51;;;;;;;1.42;1.23;;;;;;;;;;4957229;28;20035;-81
2023/05/03 01:03:17;;;;;;;5.47;1.55;;;;;;;;;;4953366;28;20492;-81
2023/05/03 01:06:01;;;;;;;2.60;1.50;;;;;;;;;;4951850;28;20066;-79
2023/05/03 01:08:42;;;;;;;1.40;1.10;;;;;;;;;;4922925;28;20520;-80
2023/05/03 01:11:17;;;;;;;1.85;1.63;;;;;;;;;;4952192;28;20051;-81
2023/05/03 01:13:45;;;;;;;1.30;1.20;;;;;;;;;;4952248;28;20045;-81
2023/05/03 01:16:28;;;;;;;2.85;1.67;;;;;;;;;;4949372;28;20089;-78
2023/05/03 01:18:56;;;;;;;1.52;1.20;;;;;;;;;;4940860;28;20044;-80
2023/05/03 01:21:22;;;;;;;1.95;1.35;;;;;;;;;;4940971;28;20121;-81
2023/05/03 01:24:02;;;;;;;1.50;1.38;;;;;;;;;;4956351;28;20459;-81
2023/05/03 01:26:27;;;;;;;2.28;2.03;;;;;;;;;;4952418;28;20042;-81
2023/05/03 01:28:54;;;;;;;3.15;1.73;;;;;;;;;;4960983;28;20042;-82
2023/05/03 01:31:30;;;;;;;3.60;2.45;;;;;;;;;;4948651;28;21135;-81
2023/05/03 01:34:33;;;;;;;9.05;4.65;;;;;;;;;;4946306;28;20105;-81
2023/05/03 01:37:02;;;;;;;4.22;2.25;;;;;;;;;;4956082;28;20105;-81
2023/05/03 01:39:44;;;;;;;4.15;2.33;;;;;;;;;;4941248;28;20527;-81
2023/05/03 01:42:11;;;;;;;3.40;1.48;;;;;;;;;;4936425;28;20106;-82
2023/05/03 01:44:38;;;;;;;4.97;2.00;;;;;;;;;;4958999;28;20035;-82
2023/05/03 01:47:03;;;;;;;2.55;1.73;;;;;;;;;;4953836;28;20421;-80
2023/05/03 01:49:29;;;;;;;4.03;1.85;;;;;;;;;;4956996;28;20034;-81
2023/05/03 01:51:54;;;;;;;2.80;1.73;;;;;;;;;;4943052;28;20507;-81
2023/05/03 01:54:20;;;;;;;2.03;1.65;;;;;;;;;;4953143;28;20042;-81
2023/05/03 01:56:46;;;;;;;2.92;1.85;;;;;;;;;;4945532;28;20080;-81
2023/05/03 01:59:11;;;;;;;2.58;1.77;;;;;;;;;;4955625;28;20058;-80
2023/05/03 02:01:36;;;;;;;1.92;1.55;;;;;;;;;;4954604;28;20047;-81
2023/05/03 02:04:02;;;;;;;3.35;1.60;;;;;;;;;;4957243;28;20133;-82
2023/05/03 02:06:27;;;;;;;2.33;1.35;;;;;;;;;;4946417;28;20039;-81
2023/05/03 02:08:53;;;;;;;4.10;2.00;;;;;;;;;;4961986;28;20038;-81
2023/05/03 02:11:18;;;;;;;0.90;0.80;;;;;;;;;;4940255;28;20418;-81
2023/05/03 02:13:44;;;;;;;3.90;1.75;;;;;;;;;;4943454;28;20046;-81
2023/05/03 02:16:10;;;;;;;2.58;1.73;;;;;;;;;;4936865;28;20047;-79
2023/05/03 02:18:35;;;;;;;2.38;1.60;;;;;;;;;;4947699;28;20130;-81
2023/05/03 02:21:01;;;;;;;2.03;1.58;;;;;;;;;;4947301;28;20053;-81
2023/05/03 02:23:26;;;;;;;2.22;1.17;;;;;;;;;;4957703;28;20055;-80
2023/05/03 02:25:51;;;;;;;2.20;1.60;;;;;;;;;;4930393;28;20056;-80
2023/05/03 02:28:17;;;;;;;1.23;1.13;;;;;;;;;;4955396;28;20039;-81
2023/05/03 02:30:42;;;;;;;2.25;1.60;;;;;;;;;;4957543;28;20069;-81
2023/05/03 02:33:08;;;;;;;1.65;1.55;;;;;;;;;;4953053;28;20046;-81
2023/05/03 02:35:33;;;;;;;1.98;1.77;;;;;;;;;;4938976;28;20395;-78
2023/05/03 02:37:59;;;;;;;4.13;1.98;;;;;;;;;;4924358;28;20046;-81
2023/05/03 02:40:25;;;;;;;3.60;1.52;;;;;;;;;;4944900;28;20360;-81
2023/05/03 02:42:51;;;;;;;1.60;1.20;;;;;;;;;;4954066;28;20841;-81
2023/05/03 02:45:16;;;;;;;3.17;1.50;;;;;;;;;;4955095;28;20051;-78
2023/05/03 02:47:42;;;;;;;2.50;1.50;;;;;;;;;;4952952;28;20046;-80
2023/05/03 02:50:07;;;;;;;2.97;1.33;;;;;;;;;;4946842;28;20097;-79
2023/05/03 02:52:33;;;;;;;2.17;1.13;;;;;;;;;;4949575;28;20062;-78
2023/05/03 02:54:58;;;;;;;2.55;1.60;;;;;;;;;;4940718;28;20039;-80
2023/05/03 02:57:24;;;;;;;1.60;0.80;;;;;;;;;;4954775;28;20345;-79
2023/05/03 02:59:50;;;;;;;1.92;1.42;;;;;;;;;;4960327;28;20098;-79
2023/05/03 03:02:16;;;;;;;4.45;1.92;;;;;;;;;;4933123;28;20104;-79
2023/05/03 03:04:41;;;;;;;1.13;0.90;;;;;;;;;;4954290;28;20042;-80
2023/05/03 03:07:06;;;;;;;2.80;1.23;;;;;;;;;;4927919;28;20086;-80
2023/05/03 03:09:32;;;;;;;3.35;2.00;;;;;;;;;;4956105;28;20035;-80
2023/05/03 03:11:57;;;;;;;3.55;2.03;;;;;;;;;;4956730;28;20047;-79
2023/05/03 03:14:23;;;;;;;1.67;1.20;;;;;;;;;;4961136;28;20126;-78
2023/05/03 03:16:50;;;;;;;1.48;1.35;;;;;;;;;;4957123;28;20116;-79
2023/05/03 03:19:15;;;;;;;1.85;1.75;;;;;;;;;;4960080;28;20043;-79
2023/05/03 03:21:41;;;;;;;3.13;1.70;;;;;;;;;;4942893;28;20049;-80
2023/05/03 03:24:06;;;;;;;0.95;0.80;;;;;;;;;;4953069;28;20511;-79
2023/05/03 03:26:32;;;;;;;4.95;2.20;;;;;;;;;;4952821;28;20051;-79
2023/05/03 03:28:57;;;;;;;1.55;1.40;;;;;;;;;;4950299;28;20039;-79
2023/05/03 03:31:24;;;;;;;4.15;2.20;;;;;;;;;;4948646;28;20054;-79
2023/05/03 03:33:50;;;;;;;2.97;1.90;;;;;;;;;;4958407;28;20041;-79
2023/05/03 03:36:15;;;;;;;3.67;1.90;;;;;;;;;;4948140;28;20173;-80
2023/05/03 03:38:41;;;;;;;3.20;1.55;;;;;;;;;;4957120;28;20102;-78
2023/05/03 03:41:06;;;;;;;4.38;2.00;;;;;;;;;;4956441;28;20055;-79
2023/05/03 03:43:32;;;;;;;4.57;1.90;;;;;;;;;;4955452;28;20042;-79
2023/05/03 03:45:57;;;;;;;3.13;2.22;;;;;;;;;;4930778;28;20051;-80
2023/05/03 03:48:23;;;;;;;5.00;2.15;;;;;;;;;;4961888;28;20050;-80
2023/05/03 03:50:48;;;;;;;5.22;2.00;;;;;;;;;;4945750;28;20046;-80
2023/05/03 03:53:14;;;;;;;1.65;1.10;;;;;;;;;;4954878;28;20066;-80
2023/05/03 03:55:39;;;;;;;3.03;1.83;;;;;;;;;;4953396;28;20043;-78
2023/05/03 03:58:05;;;;;;;5.80;1.83;;;;;;;;;;4954740;28;20546;-80
2023/05/03 04:00:31;;;;;;;1.23;1.00;;;;;;;;;;4953919;28;20082;-80
2023/05/03 04:02:56;;;;;;;2.92;1.65;;;;;;;;;;4953079;28;20042;-80
2023/05/03 04:05:21;;;;;;;4.85;1.83;;;;;;;;;;4959965;28;20066;-78
2023/05/03 04:07:47;;;;;;;7.10;2.83;;;;;;;;;;4946388;28;20070;-79
2023/05/03 04:10:13;;;;;;;3.35;1.85;;;;;;;;;;4947027;28;20516;-79
2023/05/03 04:12:38;;;;;;;3.97;1.65;;;;;;;;;;4957095;28;20040;-79
2023/05/03 04:15:04;;;;;;;3.50;1.70;;;;;;;;;;4948435;28;20042;-80
2023/05/03 04:17:32;;;;;;;3.38;2.00;;;;;;;;;;4946857;28;20050;-79
2023/05/03 04:19:57;;;;;;;3.40;2.05;;;;;;;;;;4954813;28;20065;-79
2023/05/03 04:22:22;;;;;;;2.10;1.65;;;;;;;;;;4954831;28;20431;-79
2023/05/03 04:24:48;;;;;;;2.28;1.70;;;;;;;;;;4950579;28;20042;-78
2023/05/03 04:27:13;;;;;;;4.03;1.88;;;;;;;;;;4932059;28;20121;-78
2023/05/03 04:29:39;;;;;;;4.38;1.85;;;;;;;;;;4949910;28;20042;-78
2023/05/03 04:32:06;;;;;;;1.70;1.38;;;;;;;;;;4934067;28;20616;-79
2023/05/03 04:34:32;;;;;;;2.28;1.20;;;;;;;;;;4952203;28;20039;-79
2023/05/03 04:36:59;;;;;;;4.20;1.58;;;;;;;;;;4953363;28;20451;-79
2023/05/03 04:39:25;;;;;;;2.28;1.48;;;;;;;;;;4953436;28;20043;-80
2023/05/03 04:41:50;;;;;;;4.00;2.10;;;;;;;;;;4936151;28;20050;-79
2023/05/03 04:44:16;;;;;;;3.55;1.58;;;;;;;;;;4949764;28;20034;-80
2023/05/03 04:46:42;;;;;;;2.67;1.52;;;;;;;;;;4943375;28;20043;-79
2023/05/03 04:49:07;;;;;;;3.92;2.63;;;;;;;;;;4930803;28;20456;-80
2023/05/03 04:51:33;;;;;;;3.25;2.70;;;;;;;;;;4950197;28;20043;-78
2023/05/03 04:53:58;;;;;;;5.30;2.47;;;;;;;;;;4960975;28;20259;-78
2023/05/03 04:56:25;;;;;;;6.28;3.10;;;;;;;;;;4943369;28;20069;-77
2023/05/03 04:58:51;;;;;;;5.75;3.13;;;;;;;;;;4954490;28;20503;-80
2023/05/03 05:01:17;;;;;;;4.80;2.63;;;;;;;;;;4962131;28;20078;-79
2023/05/03 05:03:43;;;;;;;3.72;2.40;;;;;;;;;;4954869;28;20066;-78
2023/05/03 05:06:11;;;;;;;5.82;3.10;;;;;;;;;;4951723;28;20043;-77
2023/05/03 05:08:36;;;;;;;3.80;2.90;;;;;;;;;;4949396;28;20039;-77
2023/05/03 05:11:05;;;;;;;6.95;3.33;;;;;;;;;;4948715;28;20573;-79
2023/05/03 05:13:31;;;;;;;5.05;3.20;;;;;;;;;;4944568;28;20062;-79
2023/05/03 05:15:56;;;;;;;5.00;3.47;;;;;;;;;;4956301;28;20101;-79
2023/05/03 05:18:21;;;;;;;5.50;3.78;;;;;;;;;;4951679;28;20054;-78
2023/05/03 05:20:47;;;;;;;5.93;3.85;;;;;;;;;;4950744;28;20041;-79
2023/05/03 05:23:12;;;;;;;5.60;3.88;;;;;;;;;;4934584;28;20098;-80
2023/05/03 05:25:38;;;;;;;10.70;4.20;;;;;;;;;;4957216;28;20037;-78
2023/05/03 05:28:03;;;;;;;11.60;6.03;;;;;;;;;;4931888;28;20047;-80
2023/05/03 05:30:29;;;;;;;4.93;3.40;;;;;;;;;;4955973;28;20042;-79
2023/05/03 05:32:54;;;;;;;10.07;4.20;;;;;;;;;;4951549;28;20105;-78
2023/05/03 05:35:19;;;;;;;5.75;3.90;;;;;;;;;;4952041;28;20047;-80
2023/05/03 05:37:45;;;;;;;5.20;3.20;;;;;;;;;;4945900;28;20050;-76
2023/05/03 05:40:11;;;;;;;4.00;3.00;;;;;;;;;;4951270;28;20054;-80
2023/05/03 05:42:36;;;;;;;4.10;2.72;;;;;;;;;;4946898;28;20068;-79
2023/05/03 05:45:02;;;;;;;7.35;2.47;;;;;;;;;;4953655;28;20086;-79
2023/05/03 05:47:28;;;;;;;4.60;1.70;;;;;;;;;;4954019;28;20046;-78
2023/05/03 05:49:53;;;;;;;2.55;1.42;;;;;;;;;;4950009;28;20117;-78
2023/05/03 05:52:19;;;;;;;7.63;2.75;;;;;;;;;;4940722;28;20082;-77
2023/05/03 05:54:44;;;;;;;2.40;2.20;;;;;;;;;;4950952;28;20118;-78
2023/05/03 05:57:11;;;;;;;5.32;2.10;;;;;;;;;;4941309;28;20430;-79
2023/05/03 05:59:37;;;;;;;5.80;2.45;;;;;;;;;;4934728;28;20043;-79
2023/05/03 06:02:03;;;;;;;5.25;1.90;;;;;;;;;;4948441;28;20756;-79
2023/05/03 06:04:28;;;;;;;2.20;1.52;;;;;;;;;;4943736;28;20038;-80
2023/05/03 06:06:53;;;;;;;2.60;1.60;;;;;;;;;;4943454;28;20066;-78
2023/05/03 06:09:19;;;;;;;2.22;2.00;;;;;;;;;;4944637;28;20149;-80
2023/05/03 06:11:45;;;;;;;2.13;1.75;;;;;;;;;;4940912;28;20073;-80
2023/05/03 06:14:11;;;;;;;4.13;1.52;;;;;;;;;;4940829;28;20049;-79
2023/05/03 06:16:36;;;;;;;4.95;2.33;;;;;;;;;;4955377;28;20073;-77
2023/05/03 06:19:03;;;;;;;4.57;2.20;;;;;;;;;;4951556;28;20039;-79
2023/05/03 06:21:29;;;;;;;4.45;2.20;;;;;;;;;;4926559;28;20055;-79
2023/05/03 06:23:55;;;;;;;2.85;1.75;;;;;;;;;;4941295;28;20078;-78
2023/05/03 06:26:22;;;;;;;4.13;1.63;;;;;;;;;;4960977;28;20069;-77
2023/05/03 06:28:49;;;;;;;4.72;1.88;;;;;;;;;;4958772;28;20045;-78
2023/05/03 06:31:14;;;;;;;4.03;2.03;;;;;;;;;;4942062;28;20518;-79
2023/05/03 06:33:40;;;;;;;4.30;2.50;;;;;;;;;;4949393;28;20057;-80
2023/05/03 06:36:07;;;;;;;5.53;1.80;;;;;;;;;;4953141;28;20091;-78
2023/05/03 06:38:32;;;;;;;3.60;1.70;;;;;;;;;;4949037;28;20055;-77
2023/05/03 06:40:58;;;;;;;3.53;2.00;;;;;;;;;;4953454;28;20049;-77
2023/05/03 06:43:24;;;;;;;3.38;1.88;;;;;;;;;;4939274;28;20461;-79
2023/05/03 06:45:52;;;;;;;4.75;1.67;;;;;;;;;;4947472;28;20038;-77
2023/05/03 06:48:17;;;;;;;5.55;2.15;;;;;;;;;;4927533;28;20047;-77
2023/05/03 06:50:43;;;;;;;4.28;1.95;;;;;;;;;;4940290;28;20045;-78
2023/05/03 06:53:08;;;;;;;3.80;1.90;;;;;;;;;;4929381;28;20130;-76
2023/05/03 06:55:33;;;;;;;3.20;1.80;;;;;;;;;;4929062;28;20059;-78
2023/05/03 06:57:59;;;;;;;3.45;1.17;;;;;;;;;;4956084;28;20061;-77
2023/05/03 07:00:24;;;;;;;7.07;1.48;;;;;;;;;;4955714;28;20075;-77
2023/05/03 07:02:50;;;;;;;7.15;1.70;;;;;;;;;;4943072;28;20067;-79
2023/05/03 07:05:16;;;;;;;3.13;1.45;;;;;;;;;;4950289;28;20065;-78
2023/05/03 07:07:41;;;;;;;0.80;0.80;;;;;;;;;;4938853;28;20054;-79
2023/05/03 07:10:07;;;;;;;3.35;1.13;;;;;;;;;;4961043;28;20054;-78
2023/05/03 07:12:32;;;;;;;3.08;1.52;;;;;;;;;;4954714;28;20470;-79
2023/05/03 07:14:57;;;;;;;2.22;1.27;;;;;;;;;;4947794;28;20051;-80
2023/05/03 07:17:24;;;;;;;4.57;1.27;;;;;;;;;;4939657;28;20078;-78
2023/05/03 07:19:50;;;;;;;1.98;1.02;;;;;;;;;;4950275;28;20681;-77
2023/05/03 07:22:16;;;;;;;4.30;1.63;;;;;;;;;;4926112;28;20047;-78
2023/05/03 07:24:42;;;;;;;1.52;1.10;;;;;;;;;;4932686;28;20073;-77
2023/05/03 07:27:07;;;;;;;3.22;1.48;;;;;;;;;;4946721;28;20063;-80
2023/05/03 07:29:33;;;;;;;2.85;1.85;;;;;;;;;;4923131;28;20070;-80
2023/05/03 07:31:59;;;;;;;1.40;1.30;;;;;;;;;;4955403;28;20070;-78
2023/05/03 07:34:24;;;;;;;4.28;1.50;;;;;;;;;;4951140;28;20046;-77
2023/05/03 07:36:50;;;;;;;1.48;1.33;;;;;;;;;;4931652;28;20334;-79
2023/05/03 07:39:16;;;;;;;3.05;1.38;;;;;;;;;;4942364;28;20045;-80
2023/05/03 07:41:42;;;;;;;1.25;1.20;;;;;;;;;;4953919;28;20046;-76
2023/05/03 07:44:07;;;;;;;2.58;1.40;;;;;;;;;;4942326;28;20042;-77
2023/05/03 07:46:33;;;;;;;2.10;1.33;;;;;;;;;;4951614;28;20070;-80
2023/05/03 07:49:00;;;;;;;2.70;1.38;;;;;;;;;;4929430;28;20099;-80
2023/05/03 07:51:25;;;;;;;1.98;1.30;;;;;;;;;;4960818;28;20042;-78
2023/05/03 07:53:51;;;;;;;2.05;1.38;;;;;;;;;;4943822;28;20046;-80
2023/05/03 07:56:16;;;;;;;3.50;1.60;;;;;;;;;;4938309;28;20038;-77
2023/05/03 07:58:41;;;;;;;3.78;1.08;;;;;;;;;;4944025;28;20551;-79
2023/05/03 08:01:09;;;;;;;2.70;0.70;;;;;;;;;;4948790;28;20050;-79
2023/05/03 08:03:34;;;;;;;2.10;1.25;;;;;;;;;;4938047;28;20066;-79
2023/05/03 08:06:00;;;;;;;1.65;1.15;;;;;;;;;;4942939;28;20043;-78
2023/05/03 08:08:26;;;;;;;2.63;1.35;;;;;;;;;;4950605;28;20045;-79
2023/05/03 08:10:52;;;;;;;2.83;1.20;;;;;;;;;;4946876;28;20129;-79
2023/05/03 08:13:17;;;;;;;3.30;1.30;;;;;;;;;;4939446;28;20038;-79
2023/05/03 08:15:44;;;;;;;1.95;1.45;;;;;;;;;;4943143;28;20051;-79
2023/05/03 08:18:10;;;;;;;2.45;1.25;;;;;;;;;;4934446;28;20038;-79
2023/05/03 08:20:35;;;;;;;2.38;1.35;;;;;;;;;;4921639;28;20059;-79
2023/05/03 08:23:01;;;;;;;3.13;1.42;;;;;;;;;;4939658;28;20035;-79
2023/05/03 08:25:27;;;;;;;3.33;1.45;;;;;;;;;;4934139;28;20136;-78
2023/05/03 08:27:52;;;;;;;3.53;1.60;;;;;;;;;;4923356;28;20782;-78
2023/05/03 08:30:20;;;;;;;2.03;1.40;;;;;;;;;;4938243;28;20038;-79
2023/05/03 08:32:46;;;;;;;4.05;1.40;;;;;;;;;;4948659;28;20054;-79
2023/05/03 08:35:12;;;;;;;3.78;1.58;;;;;;;;;;4925607;28;20038;-78
2023/05/03 08:37:39;;;;;;;3.08;1.70;;;;;;;;;;4949060;28;20411;-79
2023/05/03 08:40:06;;;;;;;4.15;1.45;;;;;;;;;;4943858;28;20038;-78
2023/05/03 08:42:32;;;;;;;2.00;1.27;;;;;;;;;;4948012;28;20043;-78
2023/05/03 08:44:58;;;;;;;3.50;1.48;;;;;;;;;;4935716;28;20046;-78
2023/05/03 08:47:23;;;;;;;5.40;1.95;;;;;;;;;;4954881;28;20071;-78
2023/05/03 08:49:51;;;;;;;3.20;1.27;;;;;;;;;;4953140;28;20614;-77
2023/05/03 08:52:19;;;;;;;1.35;1.23;;;;;;;;;;4954130;28;20545;-77
2023/05/03 08:54:44;;;;;;;3.13;1.50;;;;;;;;;;4937325;28;20503;-77
2023/05/03 08:57:13;;;;;;;3.33;1.20;;;;;;;;;;4952502;28;20070;-78
2023/05/03 08:59:59;;;;;;;2.90;1.67;;;;;;;;;;4939879;28;20043;-78
2023/05/03 09:02:26;;;;;;;2.22;1.25;;;;;;;;;;4959286;28;20097;-77
2023/05/03 09:04:51;;;;;;;1.95;1.20;;;;;;;;;;4934956;28;20040;-77
2023/05/03 09:07:19;;;;;;;1.25;0.85;;;;;;;;;;4952452;28;20038;-78
2023/05/03 09:09:45;;;;;;;0.68;0.60;;;;;;;;;;4951205;28;20047;-77
2023/05/03 09:12:10;;;;;;;4.47;1.23;;;;;;;;;;4956864;28;20035;-77
2023/05/03 09:14:45;;;;;;;3.60;1.30;;;;;;;;;;4927437;28;20714;-77
2023/05/03 09:17:15;;;;;;;2.40;1.42;;;;;;;;;;4951365;28;20039;-78
2023/05/03 09:19:55;;;;;;;6.78;1.50;;;;;;;;;;4944484;28;20062;-77
2023/05/03 09:22:32;;;;;;;2.50;1.42;;;;;;;;;;4941070;28;20100;-77
2023/05/03 09:24:59;;;;;;;4.88;1.80;;;;;;;;;;4918890;28;20065;-77
2023/05/03 09:27:26;;;;;;;2.08;1.60;;;;;;;;;;4953170;28;20463;-78
2023/05/03 09:29:52;;;;;;;3.45;1.27;;;;;;;;;;4943872;28;20049;-77
2023/05/03 09:32:18;;;;;;;2.75;1.50;;;;;;;;;;4953676;28;20046;-78
2023/05/03 09:34:44;;;;;;;2.53;2.00;;;;;;;;;;4943811;28;20046;-77
2023/05/03 09:37:10;;;;;;;2.88;1.65;;;;;;;;;;4943585;28;20042;-78
2023/05/03 09:39:36;;;;;;;1.88;1.30;;;;;;;;;;4949628;28;20067;-79
2023/05/03 09:42:11;;;;;;;1.88;1.35;;;;;;;;;;4955140;28;20073;-79
2023/05/03 09:44:47;;;;;;;2.03;1.48;;;;;;;;;;4915418;28;20054;-79
2023/05/03 09:47:14;;;;;;;2.58;1.30;;;;;;;;;;4950258;28;20054;-79
2023/05/03 09:49:39;;;;;;;0.95;0.70;;;;;;;;;;4929767;28;20129;-79
2023/05/03 09:52:06;;;;;;;1.17;0.60;;;;;;;;;;4943006;28;20121;-79
2023/05/03 09:54:34;;;;;;;3.05;1.30;;;;;;;;;;4937365;28;20041;-79
2023/05/03 09:57:01;;;;;;;2.22;0.80;;;;;;;;;;4945465;28;20046;-79
2023/05/03 09:59:27;;;;;;;2.40;1.23;;;;;;;;;;4947998;28;20061;-79
2023/05/03 10:01:57;;;;;;;1.83;1.50;;;;;;;;;;4940471;28;20130;-79
2023/05/03 10:04:25;;;;;;;2.72;1.35;;;;;;;;;;4922867;28;20125;-79
2023/05/03 10:06:56;;;;;;;2.65;1.58;;;;;;;;;;4928319;28;20043;-79
2023/05/03 10:09:44;;;;;;;1.67;1.30;;;;;;;;;;4933068;28;20034;-79
2023/05/03 10:12:11;;;;;;;3.88;1.60;;;;;;;;;;4950853;28;20054;-79
2023/05/03 10:14:41;;;;;;;2.13;1.23;;;;;;;;;;4927332;28;20038;-79
2023/05/03 10:17:13;;;;;;;1.23;0.82;;;;;;;;;;4938416;28;20133;-79
2023/05/03 10:20:09;;;;;;;1.85;1.25;;;;;;;;;;4921885;28;20055;-79
2023/05/03 10:23:03;;;;;;;3.65;1.50;;;;;;;;;;4941258;28;20089;-79
2023/05/03 10:25:29;;;;;;;4.68;1.40;;;;;;;;;;4912675;28;20040;-79
2023/05/03 10:28:02;;;;;;;2.88;1.60;;;;;;;;;;4937998;28;20469;-79
2023/05/03 10:30:33;;;;;;;2.63;1.27;;;;;;;;;;4939202;28;20462;-79
2023/05/03 10:33:19;;;;;;;;;;;;;;;;;;4951144;28;20039;-79
2023/05/03 10:35:52;;;;;;;3.53;1.38;;;;;;;;;;4923867;28;19967;-79
2023/05/03 10:38:25;;;;;;;0.75;0.50;;;;;;;;;;4945819;28;20120;-79
2023/05/03 10:40:51;;;;;;;3.00;1.27;;;;;;;;;;4927775;28;20079;-79
2023/05/03 10:43:32;;;;;;;2.83;1.15;;;;;;;;;;4932304;28;20046;-79
2023/05/03 10:45:57;;;;;;;2.88;1.20;;;;;;;;;;4931578;28;20039;-79
2023/05/03 10:48:23;;;;;;;1.77;1.10;;;;;;;;;;4954830;28;20077;-79
2023/05/03 10:50:50;;;;;;;1.73;1.27;;;;;;;;;;4954025;28;20049;-79
2023/05/03 10:53:32;;;;;;;1.10;0.93;;;;;;;;;;4952552;28;20042;-78
2023/05/03 10:56:08;;;;;;;4.15;1.45;;;;;;;;;;4919274;28;20047;-78
2023/05/03 10:58:36;;;;;;;1.38;1.27;;;;;;;;;;4946733;28;20046;-78
2023/05/03 11:01:03;;;;;;;3.85;1.58;;;;;;;;;;4952529;28;20050;-78
2023/05/03 11:03:37;;;;;;;2.38;1.67;;;;;;;;;;4949467;28;20054;-78
2023/05/03 11:06:04;;;;;;;1.58;1.17;;;;;;;;;;4933511;28;20404;-78
2023/05/03 11:08:36;;;;;;;3.88;1.50;;;;;;;;;;4938243;28;20149;-77
2023/05/03 11:11:02;;;;;;;1.13;1.02;;;;;;;;;;4936775;28;20047;-78
2023/05/03 11:13:28;;;;;;;1.98;0.88;;;;;;;;;;4937065;28;20058;-78
2023/05/03 11:15:56;;;;;;;2.70;1.50;;;;;;;;;;4936929;28;20038;-78
2023/05/03 11:18:23;;;;;;;2.33;1.55;;;;;;;;;;4942720;28;20075;-78
2023/05/03 11:20:49;;;;;;;2.70;1.20;;;;;;;;;;4938025;28;20042;-78
2023/05/03 11:23:14;;;;;;;1.83;1.30;;;;;;;;;;4943155;28;20134;-78
2023/05/03 11:25:40;;;;;;;2.05;1.23;;;;;;;;;;4937385;28;20050;-78
2023/05/03 11:31:28;;;;;;;1.65;1.05;;;;;;;;;;4912467;28;20074;-77
2023/05/03 11:33:53;;;;;;;2.00;1.13;;;;;;;;;;4931137;28;20082;-78
2023/05/03 11:36:19;;;;;;;0.95;0.60;;;;;;;;;;4959296;28;20074;-78
2023/05/03 11:38:45;;;;;;;4.40;1.20;;;;;;;;;;4958216;28;20077;-78
2023/05/03 11:41:17;;;;;;;3.63;1.10;;;;;;;;;;4957848;28;20046;-78
2023/05/03 11:43:44;;;;;;;0.95;0.82;;;;;;;;;;4960623;28;20068;-77
2023/05/03 11:46:12;;;;;;;1.23;0.90;;;;;;;;;;4925327;28;20595;-78
2023/05/03 11:48:37;;;;;;;1.98;1.20;;;;;;;;;;4960335;28;20048;-77
2023/05/03 11:51:08;;;;;;;2.05;1.10;;;;;;;;;;4939208;28;20125;-78
2023/05/03 11:53:35;;;;;;;3.70;1.20;;;;;;;;;;4943210;28;20039;-78
2023/05/03 11:56:02;;;;;;;2.45;1.00;;;;;;;;;;4955832;28;20130;-78
2023/05/03 11:58:27;;;;;;;3.00;1.20;;;;;;;;;;4964640;28;20049;-77
2023/05/03 12:00:55;;;;;;;3.13;1.30;;;;;;;;;;4928743;28;20056;-78
2023/05/03 12:03:21;;;;;;;1.88;0.80;;;;;;;;;;4956553;28;20134;-77
2023/05/03 12:05:48;;;;;;;1.40;0.98;;;;;;;;;;4957076;28;20034;-78
2023/05/03 12:08:18;;;;;;;2.97;1.35;;;;;;;;;;4960160;28;20027;-78
2023/05/03 12:10:44;;;;;;;1.00;0.80;;;;;;;;;;4959639;28;20088;-78
2023/05/03 12:13:10;;;;;;;2.05;1.00;;;;;;;;;;4933163;28;20511;-78
2023/05/03 12:15:37;;;;;;;2.03;1.00;;;;;;;;;;4950958;28;20042;-77
2023/05/03 12:18:10;;;;;;;3.17;1.00;;;;;;;;;;4956872;28;20035;-78
2023/05/03 12:20:37;;;;;;;1.80;1.20;;;;;;;;;;4953310;28;20051;-78
2023/05/03 12:23:06;;;;;;;1.95;1.20;;;;;;;;;;4962406;28;20035;-77
2023/05/03 12:25:32;;;;;;;3.92;1.30;;;;;;;;;;4943453;28;20073;-78
2023/05/03 12:28:00;;;;;;;3.53;1.52;;;;;;;;;;4946099;28;20110;-78
2023/05/03 12:30:25;;;;;;;2.88;1.23;;;;;;;;;;4926925;28;20083;-78
2023/05/03 12:32:51;;;;;;;2.83;1.17;;;;;;;;;;4953108;28;20564;-77
2023/05/03 12:35:19;;;;;;;1.30;0.82;;;;;;;;;;4943762;28;20061;-78
2023/05/03 12:37:45;;;;;;;2.00;1.15;;;;;;;;;;4954136;28;20045;-78
2023/05/03 12:40:12;;;;;;;2.95;0.98;;;;;;;;;;4949380;28;20543;-78
2023/05/03 12:42:38;;;;;;;0.77;0.45;;;;;;;;;;4938754;28;20197;-78
2023/05/03 12:45:04;;;;;;;3.95;1.33;;;;;;;;;;4942865;28;20038;-78
2023/05/03 12:47:30;;;;;;;2.08;1.13;;;;;;;;;;4950774;28;20104;-76
2023/05/03 12:49:55;;;;;;;1.77;1.20;;;;;;;;;;4945321;28;20042;-77
2023/05/03 12:52:21;;;;;;;2.95;1.10;;;;;;;;;;4954346;28;20053;-75
2023/05/03 12:54:47;;;;;;;1.98;1.20;;;;;;;;;;4892895;28;20116;-78
2023/05/03 12:57:13;;;;;;;2.25;1.10;;;;;;;;;;4934242;28;20044;-78
2023/05/03 12:59:40;;;;;;;2.45;0.93;;;;;;;;;;4922373;28;20133;-78
2023/05/03 13:02:07;;;;;;;2.55;1.05;;;;;;;;;;4958322;28;20050;-77
2023/05/03 13:04:32;;;;;;;1.60;1.13;;;;;;;;;;4956218;28;20049;-78
2023/05/03 13:06:58;;;;;;;3.10;1.23;;;;;;;;;;4941071;28;20050;-78
2023/05/03 13:09:23;;;;;;;0.93;0.82;;;;;;;;;;4937293;28;20069;-77
2023/05/03 13:11:50;;;;;;;2.33;1.30;;;;;;;;;;4957476;28;20760;-77
2023/05/03 13:14:20;;;;;;;3.35;1.00;;;;;;;;;;4938790;28;20125;-78
2023/05/03 13:16:46;;;;;;;3.72;1.08;;;;;;;;;;4951472;28;20043;-78
2023/05/03 13:19:12;;;;;;;3.42;1.25;;;;;;;;;;4956267;28;20026;-78
2023/05/03 13:21:37;;;;;;;2.28;1.17;;;;;;;;;;4943282;28;20136;-78
2023/05/03 13:24:03;;;;;;;2.90;1.20;;;;;;;;;;4935258;28;20039;-78
2023/05/03 13:26:28;;;;;;;3.13;1.75;;;;;;;;;;4952829;28;20042;-77
2023/05/03 13:28:54;;;;;;;2.80;1.70;;;;;;;;;;4957462;28;20056;-77
2023/05/03 13:31:22;;;;;;;1.83;1.15;;;;;;;;;;4938017;28;20049;-78
2023/05/03 13:33:48;;;;;;;2.47;1.40;;;;;;;;;;4951737;28;20039;-78
2023/05/03 13:36:13;;;;;;;2.65;1.13;;;;;;;;;;4917080;28;20054;-76
2023/05/03 13:38:40;;;;;;;3.33;1.55;;;;;;;;;;4942846;28;20074;-79
2023/05/03 13:41:09;;;;;;;4.63;1.60;;;;;;;;;;4957133;28;20053;-77
2023/05/03 13:43:34;;;;;;;3.80;1.80;;;;;;;;;;4950761;28;20042;-76
2023/05/03 13:46:00;;;;;;;1.15;1.05;;;;;;;;;;4950497;28;20056;-78
2023/05/03 13:48:26;;;;;;;1.52;1.15;;;;;;;;;;4924740;28;20046;-77
2023/05/03 13:50:52;;;;;;;2.88;1.38;;;;;;;;;;4944682;28;20042;-77
2023/05/03 13:53:18;;;;;;;2.72;1.35;;;;;;;;;;4953090;28;20434;-78
2023/05/03 13:55:43;;;;;;;2.30;1.15;;;;;;;;;;4933194;28;20137;-78
2023/05/03 13:58:10;;;;;;;3.38;0.98;;;;;;;;;;4955699;28;20034;-76
2023/05/03 14:00:35;;;;;;;2.97;1.45;;;;;;;;;;4947524;28;20053;-76
2023/05/03 14:03:01;;;;;;;2.08;1.40;;;;;;;;;;4933572;28;20039;-79
2023/05/03 14:05:27;;;;;;;1.20;0.90;;;;;;;;;;4939826;28;20132;-79
2023/05/03 14:07:52;;;;;;;3.05;1.30;;;;;;;;;;4938678;28;20038;-76
2023/05/03 14:10:18;;;;;;;1.27;1.08;;;;;;;;;;4939479;28;20085;-76
2023/05/03 14:12:43;;;;;;;3.00;1.10;;;;;;;;;;4949375;28;20994;-77
2023/05/03 14:15:10;;;;;;;2.63;1.35;;;;;;;;;;4937737;28;20042;-75
2023/05/03 14:17:35;;;;;;;1.88;1.17;;;;;;;;;;4930456;28;20492;-76
2023/05/03 14:20:01;;;;;;;4.28;1.50;;;;;;;;;;4943356;28;20040;-75
2023/05/03 14:22:26;;;;;;;1.92;1.13;;;;;;;;;;4944188;28;20045;-78
2023/05/03 14:24:52;;;;;;;2.22;1.25;;;;;;;;;;4937692;28;20043;-76
2023/05/03 14:27:20;;;;;;;1.38;1.20;;;;;;;;;;4951767;28;20030;-78
2023/05/03 14:29:47;;;;;;;3.08;1.58;;;;;;;;;;4942019;28;20031;-78
2023/05/03 14:32:12;;;;;;;2.97;1.30;;;;;;;;;;4928639;28;20050;-80
2023/05/03 14:34:38;;;;;;;2.80;1.40;;;;;;;;;;4945780;28;20034;-78
2023/05/03 14:37:03;;;;;;;1.88;1.40;;;;;;;;;;4955840;28;20078;-78
2023/05/03 14:39:29;;;;;;;2.80;1.40;;;;;;;;;;4944655;28;20038;-74
2023/05/03 14:41:54;;;;;;;2.17;1.48;;;;;;;;;;4935487;28;20792;-78
2023/05/03 14:44:20;;;;;;;3.60;1.60;;;;;;;;;;4929266;28;20113;-76